x

East Gulf - 208 Mn West Of Naples, Fl (42003) Wave Buoy

8:50pm - Sat 19th Apr 2014 All times are EDT. -4 hours from GMT.

  • Sig Wave height 4.6ft
  • Swell Direction
  • Peak Period 7s
  • Average Period 4s
  • Wind
    22mph, 29mph gusts
  • Sea Temp 80°f
  • Air Temp 73°f
  • Sea Pressure 1016.6mb
  • East Gulf - 208 Mn West Of Naples, Fl
  • East Gulf - 208 Mn West Of Naples, Fl

More Historic Weather Station data

Upgrade to MSW Pro to gain access to the past 30 days of data for over 8000 Wavebouys and Weather Stations around the globe.

Join Pro

Comparision Forecast

View Surf forecast
   
Sat 04/19 8:50pm 4.5ft 7s 4s 22 29 mph 1016.6mb 80f 73f
7:50pm 4.5ft 7s 4s 22 27 mph 1016mb 80f 73f
6:50pm 4.5ft 7s 4s 20 25 mph 1016mb 80f 73f
5:50pm 4.5ft 7s 4s 22 25 mph 1016mb 80f 73f
4:50pm 4.5ft 7s 4s 20 25 mph 1016.1mb 80f 73f
3:50pm 4ft 7s 4s 18 22 mph 1016.1mb 80f 73f
2:50pm 4ft 7s 4s 18 22 mph 1016.5mb 80f 73f
1:50pm 4ft 6s 4s 18 25 mph 1016.6mb 80f 73f
12:50pm 3.5ft 6s 4s 18 22 mph 1016.7mb 80f 73f
11:50am 4ft 8s 4s 18 22 mph 1016.8mb 80f 73f
10:50am 4ft 8s 4s 16 20 mph 1016.8mb 80f 73f
9:50am 4.5ft 6s 4s 16 20 mph 1016.7mb 80f 73f
8:50am 4.5ft 8s 4s 18 25 mph 1016.3mb 80f 73f
7:50am 4.5ft 8s 4s 20 25 mph 1015.7mb 80f 73f
6:50am 4.5ft 6s 4s 20 25 mph 1014.9mb 80f 73f
5:50am 4.5ft 5s 5s 20 27 mph 1014.6mb 80f 74f
4:50am 4.5ft 5s 5s 16 22 mph 1014.6mb 80f 72f
3:50am 4ft 5s 4s 18 22 mph 1014.5mb 80f 74f
2:50am 4ft 5s 4s 16 20 mph 1014.8mb 80f 74f
1:50am 4ft 5s 4s 16 20 mph 1015.2mb 80f 74f
12:50am 4ft 5s 4s 20 25 mph 1015.1mb 80f 75f
Fri 04/18 11:50pm 4.5ft 5s 4s 20 22 mph 1015mb 80f 75f
10:50pm 4.5ft 6s 5s 20 22 mph 1014.4mb 80f 76f
9:50pm 4ft 5s 5s 16 20 mph 1014.1mb 79f 76f
8:50pm 4ft 6s 5s 13 16 mph 1013.8mb 79f 77f
7:50pm 4ft 6s 5s 13 18 mph 1013.4mb 79f 77f
6:50pm 4ft 7s 5s 13 16 mph 1013.5mb 79f 76f
5:50pm 4.5ft 7s 6s 11 13 mph 1013.6mb 79f 76f
4:50pm 4.5ft 8s 6s 9 11 mph 1013.9mb 79f 76f
3:50pm 4.5ft 8s 6s 7 9 mph 1014.4mb 79f 75f
2:50pm 5ft 8s 6s 4 9 mph 1015.2mb 79f 75f
1:50pm 5ft 7s 6s 7 9 mph 1015.3mb 79f 74f
12:50pm 5ft 8s 6s 9 11 mph 1016mb 79f 73f
11:50am 5.5ft 8s 6s 7 11 mph 1016.3mb 79f 72f
10:50am 6ft 8s 6s 4 9 mph 1015.5mb 79f 71f
9:50am 6ft 7s 6s 7 9 mph 1016.2mb 79f 71f
8:50am 6ft 7s 6s 13 18 mph 1015.5mb 79f 71f
7:50am 7ft 7s 7s 29 36 mph 1014.4mb 79f 69f
6:50am 8ft 8s 7s 22 29 mph 1012.7mb 79f 77f
5:50am 8ft 7s 7s 25 31 mph 1013.1mb 79f 78f
4:50am  -   -   -  34 40 mph 1011.5mb 79f 78f
3:50am 5.5ft 7s 6s 11 18 mph 1014mb 79f 76f
2:50am 5ft 7s 6s 27 34 mph 1013.2mb 79f 77f
1:50am 4ft 7s 5s 22 29 mph 1015.1mb 79f 77f
12:50am 4.5ft 7s 5s 22 27 mph 1016.3mb 79f 77f
Thu 04/17 11:50pm 4.5ft 6s 5s 20 25 mph 1016.8mb 80f 77f
10:50pm 4.5ft 6s 5s 20 25 mph 1016.3mb 80f 76f
9:50pm 4.5ft 7s 5s 18 22 mph 1016.5mb 80f 76f
8:50pm 4.5ft 7s 5s 18 20 mph 1016.5mb 80f 76f
7:50pm 4.5ft 6s 5s 16 20 mph 1016.2mb 80f 76f
6:50pm 4.5ft 7s 5s 16 18 mph 1016.3mb 80f 76f
5:50pm 4.5ft 7s 5s 16 20 mph 1015.9mb 80f 76f
4:50pm 4.5ft 7s 6s 18 22 mph 1016.1mb 80f 76f
3:50pm 5ft 7s 6s 16 20 mph 1016.8mb 80f 76f
2:50pm 5ft 7s 6s 13 16 mph 1017.9mb 80f 76f
1:50pm 6ft 8s 6s 16 20 mph 1018.3mb 80f 77f
12:50pm 4.5ft 7s 6s 11 16 mph 1019.1mb 80f 76f
11:50am 3.5ft 6s 6s 11 16 mph 1019.5mb 80f 76f
10:50am 2.5ft 6s 5s 11 13 mph 1019.5mb 80f 76f
9:50am 2.5ft 6s 5s 9 13 mph 1019.1mb 80f 75f
7:50am 2.5ft 6s 5s 9 11 mph 1018.2mb 80f 75f
6:50am 2.5ft 7s 5s 13 16 mph 1017.5mb 80f 75f
5:50am 2.5ft 7s 5s 13 18 mph 1017.3mb 80f 74f
4:50am 2.5ft 6s 5s 13 16 mph 1017.5mb 80f 73f
3:50am 3ft 7s 5s 13 18 mph 1017.7mb 80f 72f
2:50am 3ft 7s 5s 11 16 mph 1017.9mb 80f 71f
1:50am 3ft 6s 5s 13 16 mph 1018mb 80f 71f
12:50am 3ft 7s 5s 13 18 mph 1018.5mb 80f 70f
Wed 04/16 11:50pm 3.5ft 7s 5s 11 16 mph 1019mb 80f 69f
10:50pm 3.5ft 7s 5s 11 16 mph 1018.8mb 80f 68f
9:50pm 3.5ft 7s 5s 9 13 mph 1018.6mb 80f 68f
8:50pm 3.5ft 8s 5s 11 16 mph 1018.1mb 80f 67f
7:50pm 3.5ft 8s 5s 13 16 mph 1018mb 80f 67f
6:50pm 4ft 8s 5s 13 16 mph 1017.8mb 80f 67f
5:50pm 5ft 8s 6s 13 18 mph 1017.7mb 80f 67f
4:50pm 5ft 8s 6s 13 18 mph 1017.5mb 80f 67f
3:50pm 5ft 7s 6s 11 16 mph 1017.5mb 80f 67f
2:50pm 5.5ft 8s 6s 13 18 mph 1018.2mb 80f 66f
1:50pm 5ft 8s 6s 16 20 mph 1018.6mb 80f 66f
12:50pm 5ft 8s 6s 13 18 mph 1019.4mb 80f 66f
11:50am 6ft 8s 5s 13 18 mph 1019.8mb 80f 66f
10:50am 6ft 8s 6s 16 22 mph 1019.4mb 80f 66f
9:50am 6ft 8s 5s 18 22 mph 1018.4mb 80f 66f
8:50am 6.5ft 8s 5s 20 25 mph 1018.1mb 80f 66f
7:50am 6.5ft 8s 5s 18 25 mph 1017.8mb 80f 66f
6:50am 7ft 9s 5s 22 27 mph 1016.8mb 80f 66f
5:50am 7.5ft 9s 6s 20 25 mph 1016.9mb 80f 67f
4:50am 7ft 9s 6s 25 29 mph 1016.4mb 80f 67f
3:50am 7ft 9s 6s 25 29 mph 1016.3mb 80f 67f
2:50am 7ft 9s 5s 25 31 mph 1016.2mb 80f 67f
1:50am 7ft 9s 5s 25 27 mph 1016.4mb 80f 67f